createdAt,value
2018-12-11T00:01:23.480Z,6.82
2018-12-11T00:03:58.226Z,6.78
2018-12-11T00:06:29.171Z,6.70
2018-12-11T00:09:00.712Z,6.78
2018-12-11T00:11:34.001Z,6.76
2018-12-11T00:14:06.134Z,6.79
2018-12-11T00:16:36.902Z,6.84
2018-12-11T00:19:09.602Z,6.92
2018-12-11T00:21:41.024Z,6.99
2018-12-11T00:24:11.829Z,6.92
2018-12-11T00:26:42.713Z,6.84
2018-12-11T00:29:13.595Z,6.79
2018-12-11T00:31:45.579Z,6.67
2018-12-11T00:34:20.943Z,6.58
2018-12-11T00:36:52.245Z,6.60
2018-12-11T00:39:23.006Z,6.60
2018-12-11T00:41:53.866Z,6.64
2018-12-11T00:44:24.605Z,6.63
2018-12-11T00:46:55.394Z,6.60
2018-12-11T00:49:26.261Z,6.55
2018-12-11T00:51:57.790Z,6.53
2018-12-11T00:54:28.515Z,6.44
2018-12-11T00:56:59.320Z,6.33
2018-12-11T00:59:30.030Z,6.37
2018-12-11T01:02:01.201Z,6.48
2018-12-11T01:04:32.737Z,6.54
2018-12-11T01:07:06.052Z,6.59
2018-12-11T01:09:36.798Z,6.68
2018-12-11T01:12:07.619Z,6.53
2018-12-11T01:14:38.791Z,6.49
2018-12-11T01:17:10.119Z,6.48
2018-12-11T01:19:41.248Z,6.52
2018-12-11T01:22:14.251Z,6.40
2018-12-11T01:24:45.092Z,6.28
2018-12-11T01:27:15.911Z,6.24
2018-12-11T01:29:46.762Z,6.15
2018-12-11T01:32:18.302Z,6.10
2018-12-11T01:34:49.177Z,6.08
2018-12-11T01:37:19.974Z,6.09
2018-12-11T01:39:50.735Z,6.16
2018-12-11T01:42:22.232Z,6.25
2018-12-11T01:45:00.563Z,6.32
2018-12-11T01:47:35.142Z,6.35
2018-12-11T01:50:06.138Z,6.37
2018-12-11T01:52:36.891Z,6.37
2018-12-11T01:55:10.839Z,6.30
2018-12-11T01:57:41.542Z,6.37
2018-12-11T02:00:13.323Z,6.36
2018-12-11T02:02:50.265Z,6.38
2018-12-11T02:05:21.049Z,6.32
2018-12-11T02:07:51.810Z,6.22
2018-12-11T02:10:22.890Z,6.33
2018-12-11T02:12:53.710Z,6.28
2018-12-11T02:15:24.612Z,6.26
2018-12-11T02:17:55.387Z,6.31
2018-12-11T02:20:27.442Z,6.26
2018-12-11T02:22:58.839Z,6.26
2018-12-11T02:25:29.787Z,6.11
2018-12-11T02:28:00.534Z,6.11
2018-12-11T02:30:32.031Z,6.23
2018-12-11T02:33:04.002Z,6.23
2018-12-11T02:35:34.746Z,6.26
2018-12-11T02:38:05.528Z,6.19
2018-12-11T02:40:36.288Z,6.21
2018-12-11T02:43:07.230Z,6.22
2018-12-11T02:45:37.938Z,6.13
2018-12-11T02:48:08.712Z,6.12
2018-12-11T02:50:39.431Z,6.07
2018-12-11T02:53:10.389Z,6.11
2018-12-11T02:55:41.146Z,6.02
2018-12-11T02:58:12.554Z,5.93
2018-12-11T03:00:43.543Z,6.00
2018-12-11T03:03:14.324Z,5.95
2018-12-11T03:05:45.135Z,5.98
2018-12-11T03:08:15.880Z,5.94
2018-12-11T03:10:46.704Z,5.92
2018-12-11T03:13:17.443Z,5.96
2018-12-11T03:15:48.202Z,5.90
2018-12-11T03:18:18.907Z,5.82
2018-12-11T03:20:49.660Z,5.82
2018-12-11T03:23:22.800Z,5.88
2018-12-11T03:25:53.637Z,6.01
2018-12-11T03:28:24.472Z,6.01
2018-12-11T03:30:56.317Z,6.07
2018-12-11T03:33:27.074Z,6.06
2018-12-11T03:35:57.820Z,6.07
2018-12-11T03:38:28.559Z,6.11
2018-12-11T03:40:59.338Z,6.09
2018-12-11T03:43:30.104Z,6.09
2018-12-11T03:46:00.894Z,6.11
2018-12-11T03:48:32.647Z,6.03
2018-12-11T03:51:05.788Z,6.12
2018-12-11T03:53:36.654Z,6.20
2018-12-11T03:56:07.554Z,6.24
2018-12-11T03:58:38.650Z,6.22
2018-12-11T04:01:09.442Z,6.20
2018-12-11T04:03:40.158Z,6.16
2018-12-11T04:06:13.723Z,6.17
2018-12-11T04:08:44.500Z,6.15
2018-12-11T04:11:15.264Z,6.16
2018-12-11T04:13:46.011Z,6.14
2018-12-11T04:16:17.327Z,6.07
2018-12-11T04:18:48.699Z,5.97
2018-12-11T04:21:19.566Z,5.97
2018-12-11T04:23:50.311Z,5.92
2018-12-11T04:26:23.782Z,5.92
2018-12-11T04:28:54.502Z,5.95
2018-12-11T04:31:31.662Z,5.96
2018-12-11T04:34:03.822Z,5.97
2018-12-11T04:36:35.395Z,5.95
2018-12-11T04:39:08.172Z,5.96
2018-12-11T04:41:40.018Z,5.97
2018-12-11T04:44:11.482Z,5.91
2018-12-11T04:46:42.531Z,5.83
2018-12-11T04:49:13.330Z,5.84
2018-12-11T04:51:44.067Z,5.90
2018-12-11T04:54:14.734Z,5.94
2018-12-11T04:56:45.880Z,5.93
2018-12-11T04:59:16.738Z,5.97
2018-12-11T05:01:47.441Z,6.00
2018-12-11T05:04:19.112Z,5.91
2018-12-11T05:06:49.857Z,5.92
2018-12-11T05:09:20.599Z,5.96
2018-12-11T05:11:51.715Z,5.91
2018-12-11T05:14:22.434Z,5.95
2018-12-11T05:16:53.183Z,5.93
2018-12-11T05:19:23.930Z,5.90
2018-12-11T05:21:56.665Z,5.97
2018-12-11T05:24:27.439Z,5.89
2018-12-11T05:26:58.397Z,5.90
2018-12-11T05:29:29.232Z,5.99
2018-12-11T05:31:59.970Z,5.99
2018-12-11T05:34:30.748Z,6.12
2018-12-11T05:37:03.709Z,6.06
2018-12-11T05:39:34.647Z,6.08
2018-12-11T05:42:05.415Z,6.13
2018-12-11T05:44:36.115Z,6.11
2018-12-11T05:47:06.961Z,6.21
2018-12-11T05:49:37.777Z,6.28
2018-12-11T05:52:09.078Z,6.27
2018-12-11T05:54:39.814Z,6.22
2018-12-11T05:57:10.617Z,6.20
2018-12-11T05:59:41.318Z,6.16
2018-12-11T06:02:12.081Z,6.13
2018-12-11T06:04:42.810Z,6.03
2018-12-11T06:07:13.549Z,6.04
2018-12-11T06:09:44.257Z,6.07
2018-12-11T06:12:15.016Z,6.04
2018-12-11T06:14:45.716Z,6.00
2018-12-11T06:17:16.462Z,6.00
2018-12-11T06:19:47.178Z,6.00
2018-12-11T06:22:18.050Z,5.99
2018-12-11T06:24:48.783Z,6.02
2018-12-11T06:27:19.527Z,6.00
2018-12-11T06:29:50.736Z,5.96
2018-12-11T06:32:21.850Z,5.95
2018-12-11T06:34:52.653Z,5.95
2018-12-11T06:37:23.453Z,5.99
2018-12-11T06:39:54.442Z,5.99
2018-12-11T06:42:25.495Z,5.93
2018-12-11T06:44:56.299Z,5.96
2018-12-11T06:47:27.032Z,5.95
2018-12-11T06:49:57.738Z,5.96
2018-12-11T06:52:28.492Z,5.87
2018-12-11T06:54:59.189Z,5.87
2018-12-11T06:57:29.966Z,5.86
2018-12-11T07:00:00.695Z,5.83
2018-12-11T07:02:31.564Z,5.85
2018-12-11T07:05:05.214Z,5.79
2018-12-11T07:07:35.964Z,5.77
2018-12-11T07:10:07.811Z,5.73
2018-12-11T07:12:38.559Z,5.72
2018-12-11T07:15:09.963Z,5.69
2018-12-11T07:17:40.654Z,5.81
2018-12-11T07:20:11.460Z,5.79
2018-12-11T07:22:42.206Z,5.78
2018-12-11T07:25:13.463Z,5.77
2018-12-11T07:27:44.507Z,5.82
2018-12-11T07:30:16.340Z,5.76
2018-12-11T07:32:47.077Z,5.82
2018-12-11T07:35:18.336Z,5.79
2018-12-11T07:37:49.263Z,5.78
2018-12-11T07:40:20.446Z,5.81
2018-12-11T07:42:51.321Z,5.82
2018-12-11T07:45:22.250Z,5.89
2018-12-11T07:47:53.215Z,5.91
2018-12-11T07:50:24.535Z,5.95
2018-12-11T07:52:55.302Z,5.88
2018-12-11T07:55:26.619Z,5.67
2018-12-11T07:57:58.421Z,5.53
2018-12-11T08:00:29.183Z,5.54
2018-12-11T08:03:00.014Z,5.58
2018-12-11T08:05:30.782Z,5.62
2018-12-11T08:08:03.342Z,5.65
2018-12-11T08:10:34.388Z,5.73
2018-12-11T08:13:06.411Z,5.76
2018-12-11T08:15:37.118Z,5.79
2018-12-11T08:18:08.039Z,5.78
2018-12-11T08:20:39.380Z,5.76
2018-12-11T08:23:10.174Z,5.88
2018-12-11T08:25:40.938Z,6.03
2018-12-11T08:28:11.691Z,6.06
2018-12-11T08:30:42.534Z,6.03
2018-12-11T08:33:13.234Z,6.02
2018-12-11T08:35:45.151Z,6.02
2018-12-11T08:38:15.915Z,6.01
2018-12-11T08:40:46.745Z,6.00
2018-12-11T08:43:18.402Z,5.98
2018-12-11T08:45:49.164Z,6.07
2018-12-11T08:48:19.849Z,6.16
2018-12-11T08:50:50.622Z,6.34
2018-12-11T08:53:21.415Z,6.63
2018-12-11T08:55:52.248Z,6.83
2018-12-11T08:58:23.028Z,6.82
2018-12-11T09:00:53.779Z,7.33
2018-12-11T09:03:24.973Z,7.51
2018-12-11T09:05:56.470Z,7.66
2018-12-11T09:08:27.237Z,7.64
2018-12-11T09:10:58.026Z,7.71
2018-12-11T09:13:28.713Z,7.75
2018-12-11T09:15:59.472Z,8.42
2018-12-11T09:18:30.898Z,10.26
2018-12-11T09:21:07.493Z,12.60
2018-12-11T09:23:39.109Z,14.02
2018-12-11T09:26:13.210Z,15.44
2018-12-11T09:28:44.166Z,17.00
2018-12-11T09:31:16.779Z,18.77
2018-12-11T09:33:47.742Z,20.11
2018-12-11T09:36:18.683Z,21.34
2018-12-11T09:38:49.673Z,21.02
2018-12-11T09:41:20.402Z,22.77
2018-12-11T09:43:51.910Z,22.83
2018-12-11T09:46:22.663Z,21.33
2018-12-11T09:48:53.466Z,21.50
2018-12-11T09:51:24.903Z,20.36
2018-12-11T09:53:55.672Z,20.08
2018-12-11T09:56:26.532Z,20.48
2018-12-11T09:58:59.137Z,20.31
2018-12-11T10:01:32.758Z,20.42
2018-12-11T10:04:07.582Z,20.51
2018-12-11T10:06:38.629Z,20.55
2018-12-11T10:09:10.082Z,22.32
2018-12-11T10:11:40.898Z,22.59
2018-12-11T10:14:11.690Z,22.30
2018-12-11T10:16:42.818Z,21.40
2018-12-11T10:19:13.591Z,20.31
2018-12-11T10:21:44.366Z,19.68
2018-12-11T10:24:15.115Z,18.16
2018-12-11T10:26:46.419Z,18.46
2018-12-11T10:29:17.184Z,18.71
2018-12-11T10:31:47.905Z,17.59
2018-12-11T10:34:18.673Z,17.22
2018-12-11T10:36:49.725Z,16.31
2018-12-11T10:39:20.811Z,15.58
2018-12-11T10:41:51.558Z,16.25
2018-12-11T10:44:22.305Z,17.02
2018-12-11T10:46:53.012Z,17.76
2018-12-11T10:49:23.811Z,18.33
2018-12-11T10:51:54.509Z,18.08
2018-12-11T10:54:26.027Z,18.12
2018-12-11T10:56:56.805Z,18.29
2018-12-11T10:59:27.546Z,20.85
2018-12-11T11:02:05.274Z,22.32
2018-12-11T11:04:36.021Z,24.02
2018-12-11T11:07:07.374Z,25.62
2018-12-11T11:09:38.082Z,27.06
2018-12-11T11:12:09.475Z,26.83
2018-12-11T11:14:42.663Z,25.89
2018-12-11T11:17:13.572Z,26.80
2018-12-11T11:19:44.533Z,26.83
2018-12-11T11:22:15.334Z,27.66
2018-12-11T11:24:46.917Z,25.92
2018-12-11T11:27:17.712Z,25.70
2018-12-11T11:29:48.496Z,26.24
2018-12-11T11:32:19.495Z,25.50
2018-12-11T11:34:50.466Z,24.74
2018-12-11T11:37:21.296Z,25.05
2018-12-11T11:39:52.086Z,24.93
2018-12-11T11:42:23.713Z,24.01
2018-12-11T11:44:57.120Z,22.94
2018-12-11T11:47:28.926Z,22.77
2018-12-11T11:49:59.755Z,22.73
2018-12-11T11:52:30.491Z,21.58
2018-12-11T11:55:05.306Z,21.56
2018-12-11T11:57:36.104Z,20.36
2018-12-11T12:00:12.754Z,21.30
2018-12-11T12:02:43.578Z,20.83
2018-12-11T12:05:14.355Z,20.70
2018-12-11T12:07:45.841Z,20.67
2018-12-11T12:10:18.699Z,21.27
2018-12-11T12:12:49.547Z,21.18
2018-12-11T12:15:20.347Z,22.15
2018-12-11T12:17:51.211Z,21.55
2018-12-11T12:20:22.504Z,22.81
2018-12-11T12:22:53.361Z,22.44
2018-12-11T12:25:24.604Z,22.10
2018-12-11T12:27:55.380Z,21.34
2018-12-11T12:30:29.413Z,20.70
2018-12-11T12:33:00.659Z,19.95
2018-12-11T12:35:31.495Z,20.07
2018-12-11T12:38:05.302Z,20.08
2018-12-11T12:40:36.064Z,20.54
2018-12-11T12:43:08.149Z,20.05
2018-12-11T12:45:39.186Z,20.73
2018-12-11T12:48:10.642Z,21.68
2018-12-11T12:50:41.567Z,22.55
2018-12-11T12:53:12.526Z,24.14
2018-12-11T12:55:43.467Z,24.80
2018-12-11T12:58:14.951Z,25.69
2018-12-11T13:00:46.201Z,26.08
2018-12-11T13:03:17.995Z,26.54
2018-12-11T13:05:49.339Z,26.72
2018-12-11T13:08:20.199Z,25.09
2018-12-11T13:10:51.031Z,24.64
2018-12-11T13:13:21.875Z,22.89
2018-12-11T13:15:52.692Z,22.67
2018-12-11T13:18:24.262Z,22.14
2018-12-11T13:20:55.129Z,21.64
2018-12-11T13:23:26.307Z,20.71
2018-12-11T13:25:57.503Z,20.29
2018-12-11T13:28:28.504Z,20.12
2018-12-11T13:31:00.000Z,19.27
2018-12-11T13:33:30.787Z,19.25
2018-12-11T13:36:05.286Z,19.22
2018-12-11T13:38:36.187Z,19.27
2018-12-11T13:41:09.306Z,18.83
2018-12-11T13:43:40.341Z,18.87
2018-12-11T13:46:11.078Z,18.75
2018-12-11T13:48:42.805Z,19.06
2018-12-11T13:51:14.379Z,18.50
2018-12-11T13:53:46.085Z,18.43
2018-12-11T13:56:16.806Z,18.23
2018-12-11T13:58:47.779Z,18.35
2018-12-11T14:01:18.506Z,17.74
2018-12-11T14:03:49.659Z,17.54
2018-12-11T14:06:21.564Z,17.37
2018-12-11T14:08:53.295Z,17.67
2018-12-11T14:11:24.043Z,17.91
2018-12-11T14:13:54.862Z,17.87
2018-12-11T14:16:26.926Z,17.88
2018-12-11T14:18:57.694Z,17.65
2018-12-11T14:21:28.506Z,17.40
2018-12-11T14:23:59.432Z,17.34
2018-12-11T14:26:32.147Z,17.38
2018-12-11T14:29:06.313Z,17.40
2018-12-11T14:31:38.288Z,17.37
2018-12-11T14:34:09.034Z,17.41
2018-12-11T14:36:39.854Z,17.27
2018-12-11T14:39:12.793Z,17.30
2018-12-11T14:41:43.583Z,17.48
2018-12-11T14:44:14.359Z,17.67
2018-12-11T14:46:45.586Z,17.72
2018-12-11T14:49:16.400Z,17.42
2018-12-11T14:51:47.190Z,17.27
2018-12-11T14:54:18.031Z,17.50
2018-12-11T14:56:48.835Z,17.33
2018-12-11T14:59:19.652Z,17.17
2018-12-11T15:01:50.557Z,17.18
2018-12-11T15:04:21.735Z,17.05
2018-12-11T15:06:52.611Z,17.09
2018-12-11T15:09:29.363Z,17.16
2018-12-11T15:12:00.190Z,17.08
2018-12-11T15:14:35.067Z,17.12
2018-12-11T15:17:06.458Z,17.24
2018-12-11T15:19:37.265Z,17.19
2018-12-11T15:22:08.055Z,17.04
2018-12-11T15:24:38.856Z,16.88
2018-12-11T15:27:11.034Z,16.84
2018-12-11T15:29:41.799Z,16.74
2018-12-11T15:32:12.558Z,16.54
2018-12-11T15:34:43.336Z,16.47
2018-12-11T15:37:14.097Z,16.37
2018-12-11T15:39:45.677Z,16.13
2018-12-11T15:42:16.755Z,16.09
2018-12-11T15:44:47.474Z,16.02
2018-12-11T15:47:19.303Z,15.96
2018-12-11T15:49:50.603Z,15.88
2018-12-11T15:52:25.155Z,15.86
2018-12-11T15:55:00.036Z,15.89
2018-12-11T15:57:37.222Z,15.70
2018-12-11T16:00:10.777Z,15.71
2018-12-11T16:02:41.701Z,15.54
2018-12-11T16:05:12.775Z,15.41
2018-12-11T16:07:48.451Z,15.33
2018-12-11T16:10:19.731Z,15.30
2018-12-11T16:12:51.491Z,15.31
2018-12-11T16:18:23.081Z,15.21
2018-12-11T16:20:53.894Z,15.24
2018-12-11T16:23:24.674Z,15.21
2018-12-11T16:25:55.400Z,15.18
2018-12-11T16:28:26.300Z,15.18
2018-12-11T16:30:57.108Z,15.27
2018-12-11T16:33:27.908Z,15.21
2018-12-11T16:35:58.695Z,15.10
2018-12-11T16:38:30.752Z,14.96
2018-12-11T16:41:02.534Z,14.88
2018-12-11T16:43:34.444Z,14.68
2018-12-11T16:46:06.214Z,14.55
2018-12-11T16:48:43.085Z,14.24
2018-12-11T16:51:13.995Z,14.25
2018-12-11T16:53:44.783Z,14.07
2018-12-11T16:56:15.531Z,13.95
2018-12-11T16:58:46.304Z,13.80
2018-12-11T17:01:17.104Z,13.64
2018-12-11T17:03:47.959Z,13.53
2018-12-11T17:06:18.752Z,13.35
2018-12-11T17:08:49.587Z,13.29
2018-12-11T17:11:22.726Z,13.17
2018-12-11T17:13:55.244Z,13.00
2018-12-11T17:16:29.394Z,12.93
2018-12-11T17:19:00.998Z,12.80
2018-12-11T17:21:47.335Z,12.69
2018-12-11T17:24:18.742Z,12.61
2018-12-11T17:26:50.067Z,12.54
2018-12-11T17:29:24.204Z,12.44
2018-12-11T17:31:53.817Z,12.41
2018-12-11T17:34:25.393Z,12.30
2018-12-11T17:36:56.220Z,12.22
2018-12-11T17:39:27.044Z,12.09
2018-12-11T17:41:57.850Z,12.05
2018-12-11T17:44:28.596Z,12.09
2018-12-11T17:46:59.405Z,11.93
2018-12-11T17:49:30.191Z,11.88
2018-12-11T17:52:00.955Z,11.74
2018-12-11T17:54:34.987Z,11.72
2018-12-11T17:57:10.036Z,11.71
2018-12-11T17:59:40.846Z,11.72
2018-12-11T18:02:15.630Z,11.72
2018-12-11T18:04:48.038Z,11.65
2018-12-11T18:07:25.410Z,11.68
2018-12-11T18:09:56.304Z,11.53
2018-12-11T18:12:27.116Z,11.43
2018-12-11T18:14:58.463Z,11.34
2018-12-11T18:17:29.307Z,11.24
2018-12-11T18:20:00.121Z,11.22
2018-12-11T18:22:35.832Z,11.14
2018-12-11T18:25:07.220Z,11.15
2018-12-11T18:27:38.105Z,11.17
2018-12-11T18:30:09.781Z,11.31
2018-12-11T18:32:40.606Z,11.17
2018-12-11T18:35:18.381Z,11.08
2018-12-11T18:37:49.276Z,10.90
2018-12-11T18:40:21.262Z,10.93
2018-12-11T18:42:52.233Z,10.90
2018-12-11T18:45:23.196Z,10.80
2018-12-11T18:47:54.145Z,10.69
2018-12-11T18:50:25.348Z,10.64
2018-12-11T18:52:56.215Z,10.65
2018-12-11T18:55:27.190Z,10.62
2018-12-11T18:57:59.246Z,10.57
2018-12-11T19:00:31.375Z,10.59
2018-12-11T19:03:02.615Z,10.57
2018-12-11T19:05:33.772Z,10.57
2018-12-11T19:08:05.071Z,10.50
2018-12-11T19:10:36.659Z,10.53
2018-12-11T19:13:10.109Z,10.60
2018-12-11T19:15:42.844Z,10.61
2018-12-11T19:18:14.894Z,10.72
2018-12-11T19:20:46.726Z,10.83
2018-12-11T19:23:30.865Z,10.80
2018-12-11T19:26:05.280Z,10.76
2018-12-11T19:28:38.233Z,10.81
2018-12-11T19:31:16.342Z,10.90
2018-12-11T19:33:49.260Z,10.97
2018-12-11T19:36:24.540Z,10.93
2018-12-11T19:38:58.079Z,10.93
2018-12-11T19:41:29.601Z,11.08
2018-12-11T19:44:00.826Z,11.20
2018-12-11T19:46:33.414Z,11.29
2018-12-11T19:49:06.778Z,11.20
2018-12-11T19:51:37.955Z,11.05
2018-12-11T19:54:10.198Z,10.99
2018-12-11T19:56:42.568Z,10.95
2018-12-11T19:59:14.307Z,10.95
2018-12-11T20:01:46.423Z,10.95
2018-12-11T20:04:18.128Z,11.01
2018-12-11T20:06:49.993Z,11.02
2018-12-11T20:09:21.295Z,11.03
2018-12-11T20:11:52.511Z,11.03
2018-12-11T20:14:23.775Z,11.24
2018-12-11T20:16:58.262Z,11.15
2018-12-11T20:19:32.379Z,11.03
2018-12-11T20:22:08.544Z,10.85
2018-12-11T20:24:40.294Z,10.66
2018-12-11T20:27:11.730Z,10.52
2018-12-11T20:29:43.455Z,10.42
2018-12-11T20:32:14.767Z,10.40
2018-12-11T20:34:46.576Z,10.38
2018-12-11T20:37:18.747Z,10.20
2018-12-11T20:39:52.255Z,10.06
2018-12-11T20:42:24.531Z,9.91
2018-12-11T20:44:56.780Z,9.85
2018-12-11T20:47:28.789Z,9.82
2018-12-11T20:50:00.313Z,9.86
2018-12-11T20:52:36.664Z,9.96
2018-12-11T20:55:09.179Z,9.93
2018-12-11T20:57:41.207Z,9.82
2018-12-11T21:00:14.492Z,9.79
2018-12-11T21:02:45.488Z,9.65
2018-12-11T21:05:16.623Z,9.63
2018-12-11T21:07:47.845Z,9.57
2018-12-11T21:10:20.221Z,9.62
2018-12-11T21:12:52.663Z,9.59
2018-12-11T21:15:24.378Z,9.63
2018-12-11T21:17:55.889Z,9.59
2018-12-11T21:20:27.774Z,9.65
2018-12-11T21:22:59.368Z,9.75
2018-12-11T21:25:30.757Z,9.87
2018-12-11T21:28:06.761Z,10.00
2018-12-11T21:30:38.832Z,10.10
2018-12-11T21:33:10.437Z,10.16
2018-12-11T21:35:41.469Z,10.26
2018-12-11T21:38:13.218Z,10.30
2018-12-11T21:40:44.391Z,10.45
2018-12-11T21:43:17.412Z,10.48
2018-12-11T21:45:48.515Z,10.58
2018-12-11T21:48:21.016Z,10.64
2018-12-11T21:50:52.103Z,10.49
2018-12-11T21:53:38.625Z,10.48
2018-12-11T21:56:18.473Z,10.57
2018-12-11T21:58:52.578Z,10.46
2018-12-11T22:01:23.823Z,10.42
2018-12-11T22:03:55.566Z,10.33
2018-12-11T22:06:26.673Z,10.36
2018-12-11T22:08:57.812Z,10.37
2018-12-11T22:11:30.245Z,10.37
2018-12-11T22:14:03.286Z,10.41
2018-12-11T22:16:34.347Z,10.35
2018-12-11T22:19:08.347Z,10.33
2018-12-11T22:21:39.320Z,10.31
2018-12-11T22:24:10.268Z,10.30
2018-12-11T22:26:41.264Z,10.28
2018-12-11T22:29:12.998Z,10.20
2018-12-11T22:31:44.621Z,10.27
2018-12-11T22:34:16.115Z,10.13
2018-12-11T22:36:47.082Z,10.09
2018-12-11T22:39:18.091Z,10.02
2018-12-11T22:41:49.145Z,9.95
2018-12-11T22:44:21.739Z,9.98
2018-12-11T22:46:52.778Z,9.91
2018-12-11T22:49:23.725Z,9.82
2018-12-11T22:51:56.233Z,9.71
2018-12-11T22:54:28.662Z,9.68
2018-12-11T22:56:59.702Z,9.58
2018-12-11T22:59:30.666Z,9.45
2018-12-11T23:02:03.498Z,9.32
2018-12-11T23:04:36.521Z,9.25
2018-12-11T23:07:14.464Z,9.20
2018-12-11T23:09:46.141Z,9.28
2018-12-11T23:12:17.365Z,9.26
2018-12-11T23:14:48.636Z,9.26
2018-12-11T23:17:19.435Z,9.24
2018-12-11T23:19:50.110Z,9.21
2018-12-11T23:22:21.912Z,9.20
2018-12-11T23:24:52.894Z,9.14
2018-12-11T23:27:23.592Z,9.18
2018-12-11T23:29:54.365Z,9.09
2018-12-11T23:32:26.384Z,9.07
2018-12-11T23:34:58.448Z,8.96
2018-12-11T23:37:29.244Z,8.98
2018-12-11T23:40:00.195Z,8.90
2018-12-11T23:42:35.769Z,8.90
2018-12-11T23:45:09.108Z,8.87
2018-12-11T23:47:39.855Z,8.81
2018-12-11T23:50:10.519Z,8.83
2018-12-11T23:52:41.674Z,8.67
2018-12-11T23:55:12.536Z,8.60
2018-12-11T23:57:43.482Z,8.58
